CheckWX is a tool to help pilots better visualize weather data.  It is not intended as a substitute for an official pre-flight weather briefing.

12:01:00 UTC

KMRJ METAR
Iowa County Airport
Mineral Point, Wisconsin, USA
Current

26 mins ago

KMRJ 251135Z AUTO 03010G14KT 10SM OVC050 M01/M07 A3026 RMK AO2
Observed
Mar-25 @ 11:35 UTC
Wind
  • 030° at 10 KTS
  • Gusting to 14 KTS
Visibility
10 SM
Flight Rules
VFR
Cloud Levels
  • Overcast at 5,000' AGL
Temperature
-1°C / 30°F
Dewpoint
-7°C / 19°F
Humidity
64%
Altimeter
30.26" Hg
Pressure
1024.72 hPa
Previous

46 mins ago

KMRJ 251115Z AUTO 03009KT 10SM OVC050 00/M06 A3025 RMK AO2
Observed
Mar-25 @ 11:15 UTC
Wind
  • 030° at 9 KTS
Visibility
10 SM
Flight Rules
VFR
Cloud Levels
  • Overcast at 5,000' AGL
Temperature
C / 32°F
Dewpoint
-6°C / 21°F
Humidity
64%
Altimeter
30.25" Hg
Pressure
1024.42 hPa
Previous

1 hour ago

KMRJ 251055Z AUTO 03009KT 10SM OVC050 00/M06 A3025 RMK AO2
Observed
Mar-25 @ 10:55 UTC
Wind
  • 030° at 9 KTS
Visibility
10 SM
Flight Rules
VFR
Cloud Levels
  • Overcast at 5,000' AGL
Temperature
C / 32°F
Dewpoint
-6°C / 21°F
Humidity
64%
Altimeter
30.25" Hg
Pressure
1024.42 hPa